Time;durP1;ratioP1;P1;durP2;ratioP2;P2;SDS_P1;SDS_P2;PMS_P1;PMS_P2;Temp;Humidity;BMP_temperature;BMP_pressure;BME280_temperature;BME280_humidity;BME280_pressure;Samples;Min_cycle;Max_cycle;Signal;HPM_P1;HPM_P2
2021/05/16 00:00:30;;;;;;;7.50;6.80;;;;;;;12.08;68.89;100053.25;6132431;28;20326;-51
2021/05/16 00:03:52;;;;;;;6.47;5.87;;;;;;;12.30;67.48;100050.88;6131785;29;20549;-45
2021/05/16 00:07:12;;;;;;;6.83;6.33;;;;;;;12.59;67.09;100049.19;6137454;28;20242;-52
2021/05/16 00:10:33;;;;;;;5.47;5.07;;;;;;;12.25;67.85;100047.53;6133968;28;20928;-51
2021/05/16 00:13:53;;;;;;;9.07;8.27;;;;;;;12.59;66.74;100049.19;6136359;29;20227;-51
2021/05/16 00:17:15;;;;;;;7.23;6.53;;;;;;;12.61;66.17;100047.38;6129229;28;20231;-50
2021/05/16 00:20:36;;;;;;;7.53;5.53;;;;;;;12.51;66.49;100043.34;6133440;28;20231;-46
2021/05/16 00:23:56;;;;;;;6.47;5.97;;;;;;;12.74;66.02;100034.81;6135456;28;20333;-49
2021/05/16 00:27:17;;;;;;;6.40;5.90;;;;;;;12.69;66.12;100042.78;6135587;28;20235;-50
2021/05/16 00:30:37;;;;;;;6.00;5.40;;;;;;;12.33;66.55;100035.13;6134319;28;20696;-52
2021/05/16 00:33:58;;;;;;;5.47;5.07;;;;;;;11.83;68.12;100042.56;6137528;28;20236;-46
2021/05/16 00:37:19;;;;;;;5.90;5.50;;;;;;;12.29;66.98;100041.34;6136095;29;20807;-47
2021/05/16 00:40:39;;;;;;;7.43;6.10;;;;;;;12.11;67.47;100037.47;6114859;28;20293;-47
2021/05/16 00:44:00;;;;;;;5.80;5.33;;;;;;;12.08;67.19;100031.47;6127881;28;20231;-47
2021/05/16 00:47:20;;;;;;;6.63;5.93;;;;;;;12.36;66.95;100027.19;6134784;28;20590;-48
2021/05/16 00:50:43;;;;;;;4.57;4.17;;;;;;;12.49;65.89;100026.88;6129654;28;20317;-48
2021/05/16 00:54:06;;;;;;;7.83;5.60;;;;;;;12.67;65.79;100026.28;6134827;28;20243;-47
2021/05/16 00:57:26;;;;;;;4.80;4.50;;;;;;;12.29;65.77;100025.69;6133638;28;20323;-51
2021/05/16 01:00:47;;;;;;;7.23;5.23;;;;;;;12.27;66.87;100021.38;6142549;28;20625;-48
2021/05/16 01:04:11;;;;;;;6.10;5.70;;;;;;;11.97;67.61;100032.66;6137995;28;20322;-52
2021/05/16 01:07:34;;;;;;;5.20;4.80;;;;;;;12.21;66.64;100025.03;6133665;28;20641;-50
2021/05/16 01:10:55;;;;;;;7.10;6.40;;;;;;;12.38;66.14;100020.16;6134937;28;20239;-49
2021/05/16 01:14:22;;;;;;;5.37;4.87;;;;;;;12.30;66.13;100016.94;6133773;28;20253;-49
2021/05/16 01:17:43;;;;;;;5.00;4.70;;;;;;;11.86;67.68;100021.59;6118143;28;20233;-47
2021/05/16 01:21:04;;;;;;;5.70;5.17;;;;;;;12.23;66.55;100018.00;6115385;28;20235;-48
2021/05/16 01:24:28;;;;;;;5.40;5.00;;;;;;;12.19;66.44;100013.78;6118491;29;20231;-45
2021/05/16 01:27:56;;;;;;;6.13;4.13;;;;;;;12.49;65.69;100001.59;6122933;28;20572;-49
2021/05/16 01:31:17;;;;;;;4.60;4.30;;;;;;;12.60;65.25;100012.56;6125762;28;20234;-51
2021/05/16 01:34:40;;;;;;;5.27;4.87;;;;;;;12.29;66.11;100015.25;6130946;28;20235;-50
2021/05/16 01:38:02;;;;;;;4.57;4.27;;;;;;;12.24;66.59;100014.50;6123161;28;20231;-47
2021/05/16 01:41:23;;;;;;;5.97;5.57;;;;;;;12.61;65.37;100014.28;6119819;28;20953;-48
2021/05/16 01:44:47;;;;;;;5.43;5.03;;;;;;;12.55;65.25;100008.41;6132767;28;20227;-47
2021/05/16 01:48:08;;;;;;;4.60;4.20;;;;;;;12.47;65.75;100013.84;6136401;28;20646;-46
2021/05/16 01:51:30;;;;;;;6.13;4.93;;;;;;;12.36;65.90;100016.75;6124371;28;20247;-48
2021/05/16 01:54:50;;;;;;;16.07;5.40;;;;;;;12.32;66.18;100015.13;6138237;29;20227;-49
2021/05/16 01:58:11;;;;;;;5.17;4.83;;;;;;;11.86;67.63;100020.75;6135457;28;20620;-45
2021/05/16 02:01:33;;;;;;;5.20;4.67;;;;;;;11.62;68.76;100023.13;6118974;29;20235;-50
2021/05/16 02:04:58;;;;;;;4.87;4.47;;;;;;;11.61;68.94;100024.88;6119750;28;20239;-49
2021/05/16 02:08:20;;;;;;;6.17;5.67;;;;;;;11.08;70.08;100021.84;6134736;28;20322;-47
2021/05/16 02:11:41;;;;;;;5.97;5.50;;;;;;;11.41;69.94;100019.31;6122167;28;20377;-47
2021/05/16 02:15:11;;;;;;;5.57;5.13;;;;;;;11.52;69.30;100022.50;6132648;28;20239;-48
2021/05/16 02:18:31;;;;;;;5.27;4.87;;;;;;;11.47;69.72;100018.31;6133315;28;20602;-45
2021/05/16 02:21:53;;;;;;;5.37;4.93;;;;;;;11.10;71.23;100020.06;6136140;28;20302;-49
2021/05/16 02:25:15;;;;;;;5.50;5.00;;;;;;;11.38;70.75;100020.25;6121007;29;20615;-45
2021/05/16 02:28:38;;;;;;;6.13;5.73;;;;;;;10.88;71.51;100024.06;6118182;28;20275;-48
2021/05/16 02:32:00;;;;;;;4.80;4.40;;;;;;;11.17;70.59;100021.63;6127708;28;20620;-49
2021/05/16 02:35:23;;;;;;;5.13;4.70;;;;;;;11.83;68.62;100017.34;6119618;29;20227;-49
2021/05/16 02:38:53;;;;;;;5.70;5.20;;;;;;;12.03;67.76;100008.13;6141836;28;20325;-48
2021/05/16 02:42:14;;;;;;;6.47;5.87;;;;;;;11.92;68.07;100010.19;6135859;28;20252;-47
2021/05/16 02:45:36;;;;;;;5.60;5.13;;;;;;;12.09;67.23;100013.19;6133088;29;20231;-48
2021/05/16 02:49:03;;;;;;;4.43;4.03;;;;;;;12.10;67.21;100014.06;6109967;28;20597;-48
2021/05/16 02:52:23;;;;;;;5.10;4.70;;;;;;;11.86;68.18;100010.31;6133815;29;20286;-48
2021/05/16 02:55:44;;;;;;;7.03;6.43;;;;;;;12.21;66.85;100018.06;6132830;28;20231;-48
2021/05/16 02:59:06;;;;;;;6.03;5.53;;;;;;;11.69;68.35;100015.97;6139419;28;20231;-45
2021/05/16 03:02:26;;;;;;;6.00;5.50;;;;;;;11.49;69.37;100009.53;6130592;29;21093;-51
2021/05/16 03:05:48;;;;;;;5.70;5.20;;;;;;;11.97;67.99;100011.78;6131338;29;20231;-51
2021/05/16 03:09:09;;;;;;;5.40;5.00;;;;;;;11.87;68.14;100015.50;6139112;28;20600;-49
2021/05/16 03:12:30;;;;;;;6.17;5.60;;;;;;;11.86;67.93;100015.53;6399111;23;20242;-47
2021/05/16 03:15:51;;;;;;;5.57;5.10;;;;;;;11.57;69.50;100019.75;6099457;28;20251;-52
2021/05/16 03:19:13;;;;;;;5.53;5.13;;;;;;;11.85;67.77;100004.25;6128825;28;20681;-50
2021/05/16 03:22:40;;;;;;;6.27;5.67;;;;;;;10.94;70.95;100013.50;6109873;28;20620;-44
2021/05/16 03:26:01;;;;;;;6.13;5.57;;;;;;;11.22;70.35;100011.09;6127082;28;20253;-45
2021/05/16 03:29:22;;;;;;;6.00;5.50;;;;;;;11.70;69.14;100008.13;6128800;28;20231;-49
2021/05/16 03:32:42;;;;;;;6.80;6.20;;;;;;;11.81;68.43;100002.63;6128368;28;20255;-47
2021/05/16 03:36:04;;;;;;;6.60;6.00;;;;;;;12.15;67.08;99996.50;6127164;28;20353;-48
2021/05/16 03:39:25;;;;;;;6.07;5.57;;;;;;;12.30;66.62;99989.97;6127037;28;20235;-46
2021/05/16 03:42:45;;;;;;;6.57;5.97;;;;;;;12.33;66.23;99990.75;6114956;28;20847;-47
2021/05/16 03:46:06;;;;;;;5.80;5.33;;;;;;;12.28;66.13;100000.47;6128425;29;20231;-45
2021/05/16 03:49:26;;;;;;;5.87;5.33;;;;;;;11.27;69.59;100011.00;6123157;28;20405;-48
2021/05/16 03:52:47;;;;;;;4.27;3.97;;;;;;;11.46;68.54;100007.03;6133359;28;20313;-50
2021/05/16 03:56:09;;;;;;;5.20;4.80;;;;;;;10.74;71.31;100007.00;6131912;29;20243;-45
2021/05/16 03:59:30;;;;;;;6.77;5.97;;;;;;;11.09;70.66;100007.94;6133227;28;20444;-51
2021/05/16 04:02:51;;;;;;;8.83;8.03;;;;;;;11.56;69.04;100003.28;6134321;28;20581;-50
2021/05/16 04:06:11;;;;;;;5.87;5.43;;;;;;;11.48;68.89;100010.44;6137698;29;20242;-49
2021/05/16 04:09:32;;;;;;;4.70;4.40;;;;;;;11.21;70.34;100017.22;6138533;28;20235;-49
2021/05/16 04:12:54;;;;;;;5.80;5.17;;;;;;;11.68;69.27;100022.13;6139002;28;20239;-50
2021/05/16 04:16:14;;;;;;;4.87;4.57;;;;;;;11.43;69.38;100017.50;6132096;28;20240;-50
2021/05/16 04:19:35;;;;;;;4.93;4.53;;;;;;;11.70;68.89;100015.94;6135194;28;20231;-48
2021/05/16 04:22:56;;;;;;;5.33;4.83;;;;;;;11.70;68.64;100017.72;6135821;28;20546;-46
2021/05/16 04:26:16;;;;;;;5.93;5.00;;;;;;;12.11;67.17;100020.97;6137125;29;20356;-46
2021/05/16 04:29:37;;;;;;;4.97;4.47;;;;;;;11.35;69.52;100009.03;6134025;28;20556;-46
2021/05/16 04:32:58;;;;;;;5.40;5.00;;;;;;;11.42;69.49;100021.03;6131374;28;20955;-51
2021/05/16 04:36:18;;;;;;;5.20;4.80;;;;;;;10.87;71.98;100027.56;6136263;28;20243;-51
2021/05/16 04:39:39;;;;;;;7.10;4.43;;;;;;;11.12;70.64;100027.84;6142859;28;20231;-46
2021/05/16 04:42:59;;;;;;;5.03;4.57;;;;;;;11.34;70.54;100022.97;6098357;29;20235;-48
2021/05/16 04:46:20;;;;;;;4.27;3.97;;;;;;;11.02;71.54;100032.41;6136877;28;20231;-49
2021/05/16 04:49:41;;;;;;;4.30;3.93;;;;;;;11.81;68.80;100023.50;6117946;28;20577;-50
2021/05/16 04:53:01;;;;;;;4.70;4.17;;;;;;;11.95;68.13;100021.41;6137687;28;20227;-47
2021/05/16 04:56:21;;;;;;;4.50;4.10;;;;;;;11.86;68.18;100020.75;6127171;28;20759;-47
2021/05/16 04:59:42;;;;;;;4.10;3.80;;;;;;;11.97;68.22;100019.59;6129692;28;20235;-53
2021/05/16 05:03:03;;;;;;;4.83;4.43;;;;;;;11.88;68.32;100030.25;6127279;28;20617;-46
2021/05/16 05:06:24;;;;;;;4.60;3.80;;;;;;;11.65;69.34;100023.06;6136261;28;20247;-49
2021/05/16 05:09:44;;;;;;;4.13;3.83;;;;;;;11.99;68.37;100028.25;6133832;28;20494;-50
2021/05/16 05:13:05;;;;;;;4.33;4.03;;;;;;;10.87;72.16;100022.34;6134184;28;20610;-47
2021/05/16 05:16:25;;;;;;;4.83;4.47;;;;;;;11.92;69.16;100020.63;6140136;28;20232;-47
2021/05/16 05:19:47;;;;;;;5.20;4.70;;;;;;;12.22;67.61;100024.13;6131153;28;20230;-50
2021/05/16 05:23:07;;;;;;;5.20;4.60;;;;;;;12.41;67.23;100030.53;6134251;28;20326;-48
2021/05/16 05:26:28;;;;;;;3.87;3.57;;;;;;;12.15;67.08;100019.97;6135935;28;20243;-46
2021/05/16 05:29:48;;;;;;;4.30;4.00;;;;;;;11.90;68.57;100032.84;6138863;28;20589;-49
2021/05/16 05:33:08;;;;;;;4.10;3.80;;;;;;;11.84;69.20;100033.84;6137697;28;20529;-47
2021/05/16 05:36:30;;;;;;;4.70;4.37;;;;;;;11.11;71.38;100026.13;6141361;28;20256;-45
2021/05/16 05:39:50;;;;;;;3.97;3.67;;;;;;;11.63;70.41;100028.31;6138138;28;20664;-48
2021/05/16 05:43:11;;;;;;;4.80;4.37;;;;;;;11.62;69.99;100023.97;6140630;29;20566;-48
2021/05/16 05:46:31;;;;;;;5.70;4.10;;;;;;;12.15;68.45;100013.00;6137365;28;20231;-53
2021/05/16 05:49:52;;;;;;;4.30;3.90;;;;;;;11.82;69.48;100019.97;6142177;28;20220;-51
2021/05/16 05:53:14;;;;;;;6.63;4.37;;;;;;;11.99;69.20;100023.03;6142092;28;20613;-47
2021/05/16 05:56:35;;;;;;;3.73;3.43;;;;;;;11.65;70.72;100028.28;6133159;29;20330;-46
2021/05/16 05:59:55;;;;;;;4.13;3.73;;;;;;;11.81;70.10;100023.50;6140090;28;20325;-46
2021/05/16 06:03:17;;;;;;;4.87;4.47;;;;;;;11.98;70.62;100018.72;6133201;28;20218;-47
2021/05/16 06:06:37;;;;;;;4.50;4.20;;;;;;;12.17;70.44;100010.34;6139529;28;22166;-46
2021/05/16 06:09:58;;;;;;;5.40;4.93;;;;;;;12.01;71.06;100023.81;6136080;28;20468;-45
2021/05/16 06:13:18;;;;;;;4.83;4.43;;;;;;;12.02;71.45;100022.94;6131720;28;20247;-45
2021/05/16 06:16:39;;;;;;;5.23;4.83;;;;;;;12.63;69.46;100014.22;6131042;28;20234;-45
2021/05/16 06:20:00;;;;;;;5.47;4.97;;;;;;;12.27;71.01;100022.25;6130879;28;20262;-46
2021/05/16 06:23:20;;;;;;;4.73;4.33;;;;;;;12.64;69.75;100031.63;6135280;28;20243;-46
2021/05/16 06:26:43;;;;;;;5.87;5.47;;;;;;;12.18;71.49;100023.38;6134884;28;20227;-50
2021/05/16 06:30:04;;;;;;;5.43;4.93;;;;;;;12.39;71.05;100023.66;6134597;28;20542;-50
2021/05/16 06:33:24;;;;;;;5.27;4.87;;;;;;;13.45;68.41;100025.59;6141037;28;20263;-47
2021/05/16 06:36:44;;;;;;;5.50;5.00;;;;;;;13.06;69.24;100025.97;6137802;28;20235;-49
2021/05/16 06:40:06;;;;;;;5.37;4.97;;;;;;;13.67;67.59;100025.72;6140600;28;20557;-50
2021/05/16 06:43:27;;;;;;;5.30;4.80;;;;;;;13.93;66.47;100024.81;6136296;28;20664;-48
2021/05/16 06:46:48;;;;;;;8.17;6.90;;;;;;;13.54;66.81;100022.66;6119965;28;20223;-47
2021/05/16 06:50:10;;;;;;;6.70;6.20;;;;;;;13.29;68.14;100017.38;6134492;28;20227;-46
2021/05/16 06:53:30;;;;;;;7.37;6.80;;;;;;;12.91;68.73;100021.22;6138147;28;20621;-48
2021/05/16 06:56:50;;;;;;;8.03;7.23;;;;;;;13.64;66.89;100024.97;6139151;28;20235;-49
2021/05/16 07:00:13;;;;;;;7.93;6.60;;;;;;;14.31;64.55;100032.22;6133617;28;20238;-48
2021/05/16 07:03:35;;;;;;;7.50;6.80;;;;;;;14.26;64.46;100024.50;6136857;28;20258;-46
2021/05/16 07:06:55;;;;;;;7.63;6.93;;;;;;;13.95;65.47;100024.75;6117830;29;20625;-46
2021/05/16 07:10:16;;;;;;;6.80;6.20;;;;;;;13.76;65.75;100027.16;6138415;28;20230;-45
2021/05/16 07:13:36;;;;;;;7.50;6.90;;;;;;;13.50;67.50;100030.69;6136259;28;20240;-46
2021/05/16 07:16:57;;;;;;;8.13;7.43;;;;;;;13.30;68.05;100029.59;6123568;28;20824;-49
2021/05/16 07:20:18;;;;;;;8.50;7.70;;;;;;;13.32;68.67;100037.38;6135893;28;20239;-46
2021/05/16 07:23:38;;;;;;;9.10;7.83;;;;;;;12.70;70.46;100034.06;6136296;28;20239;-46
2021/05/16 07:26:59;;;;;;;9.07;8.27;;;;;;;12.89;70.04;100036.09;6133209;28;20227;-47
2021/05/16 07:30:21;;;;;;;8.53;7.80;;;;;;;12.79;70.40;100035.50;6136228;28;20223;-48
2021/05/16 07:33:42;;;;;;;7.70;7.10;;;;;;;13.06;68.08;100033.78;6135885;29;20605;-47
2021/05/16 07:37:03;;;;;;;7.03;6.47;;;;;;;13.54;66.72;100040.97;6132040;28;20238;-49
2021/05/16 07:40:23;;;;;;;8.37;7.67;;;;;;;13.45;67.56;100036.06;6138863;28;20247;-46
2021/05/16 07:43:44;;;;;;;7.83;6.40;;;;;;;13.42;68.37;100035.31;6138360;28;20226;-47
2021/05/16 07:47:04;;;;;;;7.23;6.73;;;;;;;13.86;66.48;100036.44;6138124;28;20239;-48
2021/05/16 07:50:26;;;;;;;8.30;7.60;;;;;;;14.31;62.78;100030.44;6125449;28;20317;-45
2021/05/16 07:53:46;;;;;;;8.20;7.50;;;;;;;14.18;62.66;100031.78;6143054;29;20228;-49
2021/05/16 07:57:08;;;;;;;7.50;6.90;;;;;;;14.83;60.84;100034.63;6140751;28;20247;-47
2021/05/16 08:00:29;;;;;;;7.93;7.37;;;;;;;14.16;61.81;100034.47;6149131;28;20223;-46
2021/05/16 08:03:50;;;;;;;8.60;7.80;;;;;;;13.42;63.47;100030.94;6131991;28;20605;-45
2021/05/16 08:07:11;;;;;;;8.37;7.67;;;;;;;13.62;62.25;100030.25;6136401;28;20254;-50
2021/05/16 08:10:32;;;;;;;8.77;8.07;;;;;;;14.33;61.22;100023.38;6141261;28;20739;-48
2021/05/16 08:13:52;;;;;;;7.53;6.93;;;;;;;14.18;60.75;100029.16;6140514;28;20239;-50
2021/05/16 08:17:14;;;;;;;9.20;8.40;;;;;;;13.34;63.97;100030.34;6142686;28;20537;-48
2021/05/16 08:20:35;;;;;;;9.93;9.13;;;;;;;14.07;61.45;100020.84;6141606;28;20232;-47
2021/05/16 08:23:56;;;;;;;9.33;8.53;;;;;;;12.93;64.51;100020.28;6127891;29;20592;-46
2021/05/16 08:27:16;;;;;;;9.17;8.37;;;;;;;13.84;61.48;100017.31;6135708;28;20230;-48
2021/05/16 08:30:37;;;;;;;9.30;8.50;;;;;;;14.13;61.08;100024.13;6142879;28;20227;-49
2021/05/16 08:33:57;;;;;;;9.70;8.90;;;;;;;13.15;63.14;100024.81;6115564;28;20231;-48
2021/05/16 08:37:18;;;;;;;9.60;8.87;;;;;;;13.69;61.31;100023.06;6108782;28;20664;-47
2021/05/16 08:40:40;;;;;;;9.00;8.20;;;;;;;14.59;59.42;100016.31;6139487;28;20239;-47
2021/05/16 08:44:01;;;;;;;9.87;9.00;;;;;;;15.15;57.63;100021.09;6140738;28;20235;-47
2021/05/16 08:47:22;;;;;;;10.57;9.67;;;;;;;15.30;57.26;100016.16;6133951;28;20232;-49
2021/05/16 08:50:42;;;;;;;32.17;29.50;;;;;;;15.08;59.11;100027.50;6139433;28;20615;-48
2021/05/16 08:54:03;;;;;;;21.83;19.67;;;;;;;16.87;54.48;100014.50;6136560;28;20231;-53
2021/05/16 08:57:24;;;;;;;424.40;182.53;;;;;;;17.28;56.51;100011.63;6137347;28;20235;-50
2021/05/16 09:00:46;;;;;;;22.87;20.50;;;;;;;16.06;54.26;100014.66;6126271;28;20525;-53
2021/05/16 09:04:24;;;;;;;136.47;123.97;;;;;;;15.51;54.96;100017.03;6116691;28;20239;-54
2021/05/16 09:07:44;;;;;;;1339.73;999.90;;;;;;;16.41;54.75;100012.19;6120120;28;20467;-50
2021/05/16 09:11:05;;;;;;;422.60;388.23;;;;;;;16.47;54.13;100011.06;6139345;28;20231;-50
2021/05/16 09:14:47;;;;;;;15.20;13.97;;;;;;;15.79;54.44;100021.97;6137936;28;20593;-54
2021/05/16 09:18:07;;;;;;;43.07;38.90;;;;;;;14.69;55.79;100028.16;6135825;28;20240;-52
2021/05/16 09:21:30;;;;;;;4.43;2.80;;;;;;;12.70;61.28;100052.34;6137063;28;20227;-46
2021/05/16 09:25:03;;;;;;;4.17;2.97;;;;;;;12.43;64.92;100059.22;6136005;28;20227;-49
2021/05/16 09:28:27;;;;;;;8.63;3.87;;;;;;;12.40;66.69;100062.75;6141535;28;20325;-51
2021/05/16 09:31:50;;;;;;;5.90;5.00;;;;;;;13.60;63.69;100055.63;6141466;28;20502;-50
2021/05/16 09:35:10;;;;;;;2.23;1.97;;;;;;;13.06;64.84;100056.47;6140682;28;20664;-52
2021/05/16 09:38:32;;;;;;;4.67;3.17;;;;;;;13.51;64.24;100062.03;6138955;28;21687;-50
2021/05/16 09:42:12;;;;;;;6.37;3.77;;;;;;;14.73;61.08;100036.75;6142151;28;20235;-48
2021/05/16 09:45:51;;;;;;;3.47;3.13;;;;;;;15.32;59.06;100044.00;6133936;28;20274;-49
2021/05/16 09:49:25;;;;;;;6.30;4.97;;;;;;;16.84;57.45;100033.03;6129475;28;20279;-50
2021/05/16 09:52:58;;;;;;;4.17;3.87;;;;;;;15.57;58.36;100035.13;6131527;28;20232;-49
2021/05/16 09:56:20;;;;;;;4.50;4.10;;;;;;;15.57;60.12;100032.50;6135008;28;20243;-47
2021/05/16 09:59:41;;;;;;;5.33;3.90;;;;;;;16.52;59.23;100027.50;6136214;28;20241;-50
2021/05/16 10:03:06;;;;;;;7.90;5.33;;;;;;;17.24;56.67;100015.34;6135551;28;20235;-51
2021/05/16 10:06:29;;;;;;;7.63;6.10;;;;;;;17.07;56.53;100019.63;6134607;28;20231;-53
2021/05/16 10:09:50;;;;;;;5.50;5.00;;;;;;;16.71;56.86;100017.81;6138414;28;20318;-45
2021/05/16 10:13:11;;;;;;;8.53;7.87;;;;;;;16.91;55.02;100016.06;6130159;28;20228;-53
2021/05/16 10:16:37;;;;;;;7.17;6.60;;;;;;;16.56;55.27;100012.44;6120615;28;21967;-49
2021/05/16 10:20:00;;;;;;;7.83;7.03;;;;;;;15.56;58.34;100015.03;6134234;28;20259;-49
2021/05/16 10:23:32;;;;;;;8.57;7.77;;;;;;;15.18;59.96;100008.75;6133065;28;20251;-53
2021/05/16 10:27:16;;;;;;;8.10;7.40;;;;;;;15.73;59.43;100003.88;6132195;28;20243;-49
2021/05/16 10:30:37;;;;;;;8.67;6.80;;;;;;;15.60;59.02;100003.50;6118043;28;20293;-50
2021/05/16 10:33:57;;;;;;;10.47;9.57;;;;;;;15.79;59.45;100008.84;6126758;28;20778;-52
2021/05/16 10:37:41;;;;;;;8.77;7.73;;;;;;;15.97;58.50;99995.81;6139591;28;20238;-53
2021/05/16 10:41:15;;;;;;;10.17;9.27;;;;;;;16.92;58.73;99988.81;6123885;28;20231;-50
2021/05/16 10:44:37;;;;;;;8.77;7.17;;;;;;;16.16;57.92;99988.81;6129633;28;20234;-54
2021/05/16 10:48:08;;;;;;;7.43;6.40;;;;;;;17.27;53.55;99983.59;6135002;28;20628;-51
2021/05/16 10:51:30;;;;;;;6.77;6.07;;;;;;;17.60;51.97;99999.47;6131559;28;20659;-51
2021/05/16 10:54:50;;;;;;;7.60;6.80;;;;;;;15.09;58.43;99995.13;6133409;28;20231;-53
2021/05/16 10:58:38;;;;;;;7.77;6.43;;;;;;;15.83;57.28;99989.41;6122401;28;20239;-50
2021/05/16 11:01:58;;;;;;;3.83;3.37;;;;;;;14.32;56.78;100011.16;6132805;28;22625;-52
2021/05/16 11:05:54;;;;;;;6.00;3.23;;;;;;;14.20;56.04;100014.25;6135455;28;20309;-53
2021/05/16 11:09:15;;;;;;;3.13;2.70;;;;;;;14.62;53.96;100000.50;6141267;28;20340;-48
2021/05/16 11:12:35;;;;;;;4.70;3.37;;;;;;;14.86;54.29;100009.16;6124482;28;20514;-52
2021/05/16 11:16:03;;;;;;;4.47;2.87;;;;;;;14.73;54.40;100002.69;6119988;28;20235;-51
2021/05/16 11:19:25;;;;;;;5.20;3.80;;;;;;;15.50;53.98;100003.03;6127174;28;20246;-50
2021/05/16 11:22:47;;;;;;;5.93;3.30;;;;;;;15.83;52.96;99999.91;6122231;28;20223;-49
2021/05/16 11:26:09;;;;;;;4.20;2.43;;;;;;;15.69;51.77;100005.72;6128948;28;20234;-49
2021/05/16 11:29:30;;;;;;;2.20;2.00;;;;;;;15.50;51.19;100002.19;6122919;28;20256;-49
2021/05/16 11:32:53;;;;;;;4.13;2.07;;;;;;;15.77;50.50;100005.44;6128189;28;20621;-46
2021/05/16 11:36:16;;;;;;;3.50;1.63;;;;;;;15.82;51.15;100005.22;6128315;28;20333;-45
2021/05/16 11:39:36;;;;;;;6.80;3.20;;;;;;;14.59;54.26;100000.59;6125162;28;20261;-52
2021/05/16 11:43:01;;;;;;;4.07;3.77;;;;;;;15.70;52.49;100010.06;6126355;28;20238;-48
2021/05/16 11:46:27;;;;;;;5.83;4.10;;;;;;;14.86;55.85;100008.31;6114014;28;20661;-49
2021/05/16 11:49:50;;;;;;;4.60;4.20;;;;;;;15.45;55.12;100007.63;6121575;29;20329;-49
2021/05/16 11:53:12;;;;;;;6.30;4.83;;;;;;;15.46;56.08;100004.09;6131774;28;20234;-52
2021/05/16 11:56:37;;;;;;;5.63;5.13;;;;;;;15.63;56.13;100006.00;6124759;29;20285;-53
2021/05/16 11:59:57;;;;;;;5.77;5.23;;;;;;;17.38;50.96;99997.06;6129110;28;20235;-54
2021/05/16 12:03:18;;;;;;;6.83;4.77;;;;;;;15.61;56.33;100001.75;6124163;28;20231;-53
2021/05/16 12:06:43;;;;;;;7.00;5.07;;;;;;;17.37;52.29;99995.38;6120805;28;20243;-50
2021/05/16 12:10:05;;;;;;;5.00;4.30;;;;;;;19.23;48.09;99973.94;6127229;28;20777;-50
2021/05/16 12:13:26;;;;;;;5.90;4.83;;;;;;;19.11;47.61;99972.03;6122856;29;20239;-49
2021/05/16 12:16:51;;;;;;;7.93;3.87;;;;;;;17.65;49.73;99978.16;6121858;28;20231;-49
2021/05/16 12:20:22;;;;;;;3.53;3.00;;;;;;;17.59;50.26;99974.06;6123205;29;20231;-54
2021/05/16 12:23:51;;;;;;;3.47;3.17;;;;;;;16.65;50.93;99981.31;6124685;28;20230;-52
2021/05/16 12:27:13;;;;;;;6.03;5.43;;;;;;;15.90;53.40;99977.72;6100868;29;20803;-48
2021/05/16 12:30:33;;;;;;;3.50;3.20;;;;;;;18.33;48.52;99977.25;6134746;29;20844;-52
2021/05/16 12:33:59;;;;;;;4.73;3.40;;;;;;;18.90;45.69;99969.69;6134021;28;20632;-49
2021/05/16 12:37:22;;;;;;;4.60;4.20;;;;;;;18.60;45.42;99969.59;6132585;28;20231;-49
2021/05/16 12:40:44;;;;;;;2.67;1.90;;;;;;;17.74;46.16;99969.81;6134466;28;20232;-48
2021/05/16 12:44:07;;;;;;;2.10;1.93;;;;;;;17.41;45.74;99982.88;6143082;28;20247;-51
2021/05/16 12:47:28;;;;;;;3.93;3.07;;;;;;;16.40;49.72;99988.63;6129638;28;20261;-50
2021/05/16 12:50:50;;;;;;;7.10;4.13;;;;;;;14.87;55.18;100002.13;6134825;28;20271;-48
2021/05/16 12:54:15;;;;;;;4.20;3.50;;;;;;;14.45;55.78;100013.34;6132860;28;20267;-51
2021/05/16 12:57:44;;;;;;;4.97;3.27;;;;;;;14.26;57.49;100026.28;6140714;28;20235;-49
2021/05/16 13:01:04;;;;;;;8.57;4.67;;;;;;;14.76;56.13;100024.38;6138272;28;20972;-46
2021/05/16 13:04:25;;;;;;;3.77;3.47;;;;;;;14.58;56.81;100030.34;6135471;28;20239;-52
2021/05/16 13:07:48;;;;;;;4.00;3.10;;;;;;;14.43;57.80;100033.50;6137903;28;20629;-48
2021/05/16 13:11:10;;;;;;;5.20;3.00;;;;;;;14.21;58.48;100033.44;6137631;28;20338;-49
2021/05/16 13:14:34;;;;;;;4.50;3.40;;;;;;;14.96;55.77;100020.13;6147453;28;20333;-51
2021/05/16 13:17:54;;;;;;;4.03;2.27;;;;;;;15.62;53.70;100024.44;6143399;28;20235;-53
2021/05/16 13:21:39;;;;;;;3.70;2.13;;;;;;;15.41;55.37;100021.81;6126763;29;20641;-53
2021/05/16 13:25:01;;;;;;;5.97;2.83;;;;;;;15.16;55.78;100017.56;6127680;28;20314;-53
2021/05/16 13:28:26;;;;;;;3.47;2.37;;;;;;;16.54;50.35;100002.81;6145062;29;20235;-54
2021/05/16 13:31:47;;;;;;;5.50;2.60;;;;;;;19.41;43.16;99988.72;6136870;28;20235;-50
2021/05/16 13:35:08;;;;;;;2.53;1.87;;;;;;;18.13;44.21;99992.34;6134476;28;20234;-54
2021/05/16 13:38:30;;;;;;;4.30;2.40;;;;;;;16.72;47.21;99993.22;6127281;28;20272;-51
2021/05/16 13:41:51;;;;;;;2.93;2.17;;;;;;;18.98;43.26;99988.56;6132996;29;20231;-52
2021/05/16 13:45:12;;;;;;;2.92;2.30;;;;;;;20.07;39.89;99983.91;6131813;28;20274;-53
2021/05/16 13:48:34;;;;;;;3.10;2.17;;;;;;;20.37;39.15;99980.28;6140957;28;20318;-51
2021/05/16 13:51:54;;;;;;;2.17;1.98;;;;;;;19.38;41.31;99980.13;6138557;28;20235;-54
2021/05/16 13:55:15;;;;;;;2.80;2.17;;;;;;;21.07;38.50;99974.06;6142395;29;20250;-53
2021/05/16 13:58:36;;;;;;;3.67;2.00;;;;;;;20.74;39.31;99970.03;6135827;28;20524;-52
2021/05/16 14:01:57;;;;;;;3.25;2.60;;;;;;;19.63;40.37;99974.22;6132936;29;20614;-53
2021/05/16 14:05:19;;;;;;;4.30;2.85;;;;;;;19.32;41.52;99967.28;6136821;28;20235;-48
2021/05/16 14:08:39;;;;;;;4.05;2.60;;;;;;;17.82;44.78;99964.97;6139327;29;20235;-48
2021/05/16 14:11:59;;;;;;;8.63;4.13;;;;;;;17.82;45.48;99972.03;6131064;29;20238;-52
2021/05/16 14:15:20;;;;;;;4.90;3.75;;;;;;;18.60;44.18;99965.19;6137454;28;20235;-51
2021/05/16 14:18:41;;;;;;;5.63;2.60;;;;;;;15.99;49.72;99970.34;6121226;28;20235;-49
2021/05/16 14:22:03;;;;;;;5.22;3.30;;;;;;;16.46;49.20;99967.31;6130117;28;20235;-50
2021/05/16 14:25:23;;;;;;;6.17;3.73;;;;;;;15.94;50.81;99973.19;6135769;28;20231;-50
2021/05/16 14:28:43;;;;;;;4.30;3.50;;;;;;;16.37;50.67;99967.75;6130488;28;20676;-50
2021/05/16 14:32:05;;;;;;;5.50;3.57;;;;;;;16.78;50.82;99981.56;6125393;28;20234;-49
2021/05/16 14:35:25;;;;;;;5.90;3.53;;;;;;;17.41;50.45;99981.13;6142480;28;20235;-51
2021/05/16 14:38:47;;;;;;;7.83;4.30;;;;;;;17.40;50.81;99989.09;6144471;28;20341;-52
2021/05/16 14:42:07;;;;;;;7.27;3.43;;;;;;;18.78;48.55;99970.34;6138367;29;20230;-51
2021/05/16 14:45:28;;;;;;;6.73;3.30;;;;;;;18.81;48.65;99975.50;6139721;28;20243;-52
2021/05/16 14:48:49;;;;;;;3.20;2.78;;;;;;;19.07;48.86;99956.38;6131241;29;20605;-52
2021/05/16 14:52:09;;;;;;;5.20;2.80;;;;;;;19.69;45.58;99955.38;6116804;28;20235;-50
2021/05/16 14:55:30;;;;;;;3.97;2.90;;;;;;;19.80;45.23;99955.59;6135542;28;20235;-53
2021/05/16 14:58:51;;;;;;;5.30;2.40;;;;;;;20.08;44.28;99953.88;6119910;28;20324;-49
2021/05/16 15:02:11;;;;;;;7.45;3.80;;;;;;;20.04;44.96;99952.38;6124521;28;20239;-49
2021/05/16 15:05:31;;;;;;;6.43;3.40;;;;;;;19.07;46.92;99959.00;6114755;28;20545;-52
2021/05/16 15:08:54;;;;;;;7.28;3.10;;;;;;;18.79;48.82;99959.72;6126732;28;20230;-50
2021/05/16 15:12:15;;;;;;;4.63;3.80;;;;;;;16.15;54.26;99979.25;6103220;28;20231;-51
2021/05/16 15:15:36;;;;;;;8.13;4.63;;;;;;;16.23;53.57;99985.00;6125318;28;20601;-48
2021/05/16 15:18:58;;;;;;;6.00;2.75;;;;;;;16.30;52.66;99982.94;6126683;28;20334;-53
2021/05/16 15:22:19;;;;;;;4.50;2.70;;;;;;;16.07;51.77;99989.22;6127606;28;20243;-47
2021/05/16 15:25:40;;;;;;;8.50;4.20;;;;;;;15.23;54.49;100007.66;6127763;28;20452;-45
2021/05/16 15:29:01;;;;;;;6.93;3.57;;;;;;;15.59;56.36;100014.06;6131148;28;20232;-47
2021/05/16 15:32:22;;;;;;;6.77;3.83;;;;;;;15.70;57.66;100002.19;6135976;28;20365;-49
2021/05/16 15:35:43;;;;;;;6.13;4.43;;;;;;;15.75;57.07;100010.75;6117042;28;20247;-50
2021/05/16 15:39:05;;;;;;;5.27;4.27;;;;;;;15.82;56.05;100013.97;6133878;28;20629;-50
2021/05/16 15:42:25;;;;;;;5.40;3.63;;;;;;;14.41;59.46;100001.28;6131886;28;20260;-53